sensor_id;sensor_type;location;lat;lon;timestamp;pressure;altitude;pressure_sealevel;temperature;humidity
65760;BME280;52496;51.082;5.066;2023-04-09T00:00:30;102421.63;;;6.02;100.00
65760;BME280;52496;51.082;5.066;2023-04-09T00:03:01;102416.81;;;6.07;100.00
65760;BME280;52496;51.082;5.066;2023-04-09T00:05:32;102410.28;;;6.11;100.00
65760;BME280;52496;51.082;5.066;2023-04-09T00:08:02;102418.53;;;6.19;100.00
65760;BME280;52496;51.082;5.066;2023-04-09T00:10:33;102416.16;;;6.27;100.00
65760;BME280;52496;51.082;5.066;2023-04-09T00:13:03;102411.81;;;6.37;100.00
65760;BME280;52496;51.082;5.066;2023-04-09T00:15:34;102419.91;;;6.47;100.00
65760;BME280;52496;51.082;5.066;2023-04-09T00:18:04;102411.22;;;6.56;100.00
65760;BME280;52496;51.082;5.066;2023-04-09T00:20:35;102405.31;;;6.64;100.00
65760;BME280;52496;51.082;5.066;2023-04-09T00:23:06;102410.84;;;6.72;100.00
65760;BME280;52496;51.082;5.066;2023-04-09T00:25:36;102411.09;;;6.80;100.00
65760;BME280;52496;51.082;5.066;2023-04-09T00:28:07;102411.13;;;6.92;100.00
65760;BME280;52496;51.082;5.066;2023-04-09T00:30:37;102408.66;;;7.00;100.00
65760;BME280;52496;51.082;5.066;2023-04-09T00:33:08;102413.25;;;7.09;100.00
65760;BME280;52496;51.082;5.066;2023-04-09T00:35:38;102412.50;;;7.18;100.00
65760;BME280;52496;51.082;5.066;2023-04-09T00:38:09;102404.91;;;7.25;100.00
65760;BME280;52496;51.082;5.066;2023-04-09T00:40:39;102413.22;;;7.31;100.00
65760;BME280;52496;51.082;5.066;2023-04-09T00:43:10;102407.41;;;7.38;100.00
65760;BME280;52496;51.082;5.066;2023-04-09T00:45:41;102407.75;;;7.44;100.00
65760;BME280;52496;51.082;5.066;2023-04-09T00:48:12;102406.25;;;7.51;100.00
65760;BME280;52496;51.082;5.066;2023-04-09T00:50:43;102405.66;;;7.59;100.00
65760;BME280;52496;51.082;5.066;2023-04-09T00:53:15;102389.16;;;7.65;100.00
65760;BME280;52496;51.082;5.066;2023-04-09T00:55:45;102400.88;;;7.74;100.00
65760;BME280;52496;51.082;5.066;2023-04-09T00:58:16;102396.84;;;7.79;100.00
65760;BME280;52496;51.082;5.066;2023-04-09T01:00:47;102388.34;;;7.86;100.00
65760;BME280;52496;51.082;5.066;2023-04-09T01:03:17;102388.78;;;7.91;100.00
65760;BME280;52496;51.082;5.066;2023-04-09T01:08:38;102379.19;;;7.99;100.00
65760;BME280;52496;51.082;5.066;2023-04-09T01:11:45;102380.47;;;8.05;100.00
65760;BME280;52496;51.082;5.066;2023-04-09T01:14:39;102372.94;;;8.10;100.00
65760;BME280;52496;51.082;5.066;2023-04-09T01:17:18;102375.22;;;8.15;100.00
65760;BME280;52496;51.082;5.066;2023-04-09T01:20:00;102375.78;;;8.18;100.00
65760;BME280;52496;51.082;5.066;2023-04-09T01:25:59;102374.31;;;8.25;100.00
65760;BME280;52496;51.082;5.066;2023-04-09T01:28:32;102373.06;;;8.30;100.00
65760;BME280;52496;51.082;5.066;2023-04-09T01:31:16;102365.78;;;8.32;100.00
65760;BME280;52496;51.082;5.066;2023-04-09T01:33:47;102376.19;;;8.35;100.00
65760;BME280;52496;51.082;5.066;2023-04-09T01:36:18;102368.88;;;8.37;100.00
65760;BME280;52496;51.082;5.066;2023-04-09T01:38:50;102378.34;;;8.41;100.00
65760;BME280;52496;51.082;5.066;2023-04-09T01:41:22;102380.75;;;8.44;100.00
65760;BME280;52496;51.082;5.066;2023-04-09T01:43:54;102368.09;;;8.46;100.00
65760;BME280;52496;51.082;5.066;2023-04-09T01:46:25;102370.66;;;8.47;100.00
65760;BME280;52496;51.082;5.066;2023-04-09T01:48:56;102365.19;;;8.49;100.00
65760;BME280;52496;51.082;5.066;2023-04-09T01:51:28;102365.06;;;8.50;100.00
65760;BME280;52496;51.082;5.066;2023-04-09T01:53:59;102369.28;;;8.53;100.00
65760;BME280;52496;51.082;5.066;2023-04-09T01:56:43;102370.00;;;8.55;100.00
65760;BME280;52496;51.082;5.066;2023-04-09T01:59:14;102376.19;;;8.56;100.00
65760;BME280;52496;51.082;5.066;2023-04-09T02:01:58;102376.88;;;8.58;100.00
65760;BME280;52496;51.082;5.066;2023-04-09T02:04:32;102378.44;;;8.60;100.00
65760;BME280;52496;51.082;5.066;2023-04-09T02:07:44;102376.47;;;8.62;100.00
65760;BME280;52496;51.082;5.066;2023-04-09T02:10:17;102379.72;;;8.66;100.00
65760;BME280;52496;51.082;5.066;2023-04-09T02:12:50;102371.59;;;8.67;100.00
65760;BME280;52496;51.082;5.066;2023-04-09T02:15:22;102374.38;;;8.66;100.00
65760;BME280;52496;51.082;5.066;2023-04-09T02:17:53;102376.22;;;8.65;100.00
65760;BME280;52496;51.082;5.066;2023-04-09T02:20:24;102367.38;;;8.65;100.00
65760;BME280;52496;51.082;5.066;2023-04-09T02:22:55;102364.81;;;8.63;100.00
65760;BME280;52496;51.082;5.066;2023-04-09T02:25:26;102365.66;;;8.64;100.00
65760;BME280;52496;51.082;5.066;2023-04-09T02:27:57;102369.88;;;8.66;100.00
65760;BME280;52496;51.082;5.066;2023-04-09T02:30:27;102364.28;;;8.69;100.00
65760;BME280;52496;51.082;5.066;2023-04-09T02:32:58;102354.47;;;8.70;100.00
65760;BME280;52496;51.082;5.066;2023-04-09T02:35:29;102359.94;;;8.68;100.00
65760;BME280;52496;51.082;5.066;2023-04-09T02:37:59;102360.66;;;8.70;100.00
65760;BME280;52496;51.082;5.066;2023-04-09T02:40:30;102367.41;;;8.75;100.00
65760;BME280;52496;51.082;5.066;2023-04-09T02:43:01;102360.38;;;8.73;100.00
65760;BME280;52496;51.082;5.066;2023-04-09T02:45:31;102355.06;;;8.73;100.00
65760;BME280;52496;51.082;5.066;2023-04-09T02:48:02;102348.00;;;8.72;100.00
65760;BME280;52496;51.082;5.066;2023-04-09T02:50:33;102356.84;;;8.73;100.00
65760;BME280;52496;51.082;5.066;2023-04-09T02:53:03;102346.34;;;8.71;100.00
65760;BME280;52496;51.082;5.066;2023-04-09T02:55:34;102345.75;;;8.68;100.00
65760;BME280;52496;51.082;5.066;2023-04-09T02:58:05;102336.47;;;8.62;100.00
65760;BME280;52496;51.082;5.066;2023-04-09T03:00:35;102344.28;;;8.54;100.00
65760;BME280;52496;51.082;5.066;2023-04-09T03:03:06;102352.25;;;8.44;100.00
65760;BME280;52496;51.082;5.066;2023-04-09T03:05:36;102343.47;;;8.33;100.00
65760;BME280;52496;51.082;5.066;2023-04-09T03:08:08;102348.03;;;8.21;100.00
65760;BME280;52496;51.082;5.066;2023-04-09T03:10:38;102339.53;;;8.06;100.00
65760;BME280;52496;51.082;5.066;2023-04-09T03:13:09;102335.25;;;7.94;100.00
65760;BME280;52496;51.082;5.066;2023-04-09T03:15:40;102336.28;;;7.81;100.00
65760;BME280;52496;51.082;5.066;2023-04-09T03:18:10;102331.16;;;7.69;100.00
65760;BME280;52496;51.082;5.066;2023-04-09T03:20:41;102338.34;;;7.57;100.00
65760;BME280;52496;51.082;5.066;2023-04-09T03:23:11;102335.75;;;7.46;100.00
65760;BME280;52496;51.082;5.066;2023-04-09T03:25:44;102333.13;;;7.34;100.00
65760;BME280;52496;51.082;5.066;2023-04-09T03:28:14;102333.91;;;7.25;100.00
65760;BME280;52496;51.082;5.066;2023-04-09T03:30:45;102330.41;;;7.13;100.00
65760;BME280;52496;51.082;5.066;2023-04-09T03:33:15;102329.50;;;7.03;100.00
65760;BME280;52496;51.082;5.066;2023-04-09T03:35:46;102315.13;;;6.95;100.00
65760;BME280;52496;51.082;5.066;2023-04-09T03:38:17;102319.38;;;6.86;100.00
65760;BME280;52496;51.082;5.066;2023-04-09T03:40:47;102311.88;;;6.80;100.00
65760;BME280;52496;51.082;5.066;2023-04-09T03:43:18;102315.16;;;6.72;100.00
65760;BME280;52496;51.082;5.066;2023-04-09T03:45:48;102310.81;;;6.60;100.00
65760;BME280;52496;51.082;5.066;2023-04-09T03:48:19;102311.53;;;6.51;100.00
65760;BME280;52496;51.082;5.066;2023-04-09T03:50:50;102312.28;;;6.41;100.00
65760;BME280;52496;51.082;5.066;2023-04-09T03:53:22;102319.16;;;6.33;100.00
65760;BME280;52496;51.082;5.066;2023-04-09T03:55:53;102310.81;;;6.26;100.00
65760;BME280;52496;51.082;5.066;2023-04-09T03:58:23;102310.59;;;6.18;100.00
65760;BME280;52496;51.082;5.066;2023-04-09T04:00:54;102307.69;;;6.10;100.00
65760;BME280;52496;51.082;5.066;2023-04-09T04:03:25;102302.09;;;6.02;100.00
65760;BME280;52496;51.082;5.066;2023-04-09T04:06:02;102308.88;;;5.94;100.00
65760;BME280;52496;51.082;5.066;2023-04-09T04:08:33;102307.59;;;5.87;100.00
65760;BME280;52496;51.082;5.066;2023-04-09T04:11:04;102304.56;;;5.81;100.00
65760;BME280;52496;51.082;5.066;2023-04-09T04:13:34;102306.63;;;5.77;100.00
65760;BME280;52496;51.082;5.066;2023-04-09T04:16:09;102310.94;;;5.78;100.00
65760;BME280;52496;51.082;5.066;2023-04-09T04:18:40;102308.53;;;5.75;100.00
65760;BME280;52496;51.082;5.066;2023-04-09T04:21:13;102305.16;;;5.73;100.00
65760;BME280;52496;51.082;5.066;2023-04-09T04:23:44;102313.25;;;5.71;100.00
65760;BME280;52496;51.082;5.066;2023-04-09T04:26:14;102309.25;;;5.66;100.00
65760;BME280;52496;51.082;5.066;2023-04-09T04:28:45;102315.97;;;5.59;100.00
65760;BME280;52496;51.082;5.066;2023-04-09T04:31:15;102313.78;;;5.52;100.00
65760;BME280;52496;51.082;5.066;2023-04-09T04:33:46;102310.41;;;5.50;100.00
65760;BME280;52496;51.082;5.066;2023-04-09T04:36:16;102326.09;;;5.53;100.00
65760;BME280;52496;51.082;5.066;2023-04-09T04:38:47;102321.66;;;5.54;100.00
65760;BME280;52496;51.082;5.066;2023-04-09T04:41:17;102319.22;;;5.51;100.00
65760;BME280;52496;51.082;5.066;2023-04-09T04:43:48;102327.50;;;5.46;100.00
65760;BME280;52496;51.082;5.066;2023-04-09T04:46:18;102325.09;;;5.43;100.00
65760;BME280;52496;51.082;5.066;2023-04-09T04:48:49;102308.66;;;5.38;100.00
65760;BME280;52496;51.082;5.066;2023-04-09T04:51:20;102313.25;;;5.36;100.00
65760;BME280;52496;51.082;5.066;2023-04-09T04:53:50;102306.25;;;5.35;100.00
65760;BME280;52496;51.082;5.066;2023-04-09T04:56:21;102311.53;;;5.35;100.00
65760;BME280;52496;51.082;5.066;2023-04-09T04:58:51;102313.25;;;5.36;100.00
65760;BME280;52496;51.082;5.066;2023-04-09T05:01:22;102312.50;;;5.34;100.00
65760;BME280;52496;51.082;5.066;2023-04-09T05:03:53;102315.41;;;5.31;100.00
65760;BME280;52496;51.082;5.066;2023-04-09T05:06:24;102317.31;;;5.29;100.00
65760;BME280;52496;51.082;5.066;2023-04-09T05:09:16;102315.84;;;5.25;100.00
65760;BME280;52496;51.082;5.066;2023-04-09T05:11:47;102317.97;;;5.20;100.00
65760;BME280;52496;51.082;5.066;2023-04-09T05:14:17;102305.91;;;5.16;100.00
65760;BME280;52496;51.082;5.066;2023-04-09T05:16:51;102312.28;;;5.13;100.00
65760;BME280;52496;51.082;5.066;2023-04-09T05:19:22;102315.06;;;5.12;100.00
65760;BME280;52496;51.082;5.066;2023-04-09T05:21:53;102311.69;;;5.10;100.00
65760;BME280;52496;51.082;5.066;2023-04-09T05:24:24;102316.84;;;5.11;100.00
65760;BME280;52496;51.082;5.066;2023-04-09T05:26:54;102318.66;;;5.11;100.00
65760;BME280;52496;51.082;5.066;2023-04-09T05:29:28;102317.72;;;5.12;100.00
65760;BME280;52496;51.082;5.066;2023-04-09T05:31:58;102316.75;;;5.13;100.00
65760;BME280;52496;51.082;5.066;2023-04-09T05:34:29;102313.13;;;5.14;100.00
65760;BME280;52496;51.082;5.066;2023-04-09T05:37:00;102315.56;;;5.17;100.00
65760;BME280;52496;51.082;5.066;2023-04-09T05:39:31;102311.00;;;5.19;100.00
65760;BME280;52496;51.082;5.066;2023-04-09T05:42:03;102320.53;;;5.21;100.00
65760;BME280;52496;51.082;5.066;2023-04-09T05:44:34;102313.09;;;5.26;100.00
65760;BME280;52496;51.082;5.066;2023-04-09T05:47:04;102310.22;;;5.29;100.00
65760;BME280;52496;51.082;5.066;2023-04-09T05:49:35;102311.78;;;5.32;100.00
65760;BME280;52496;51.082;5.066;2023-04-09T05:52:06;102325.56;;;5.37;100.00
65760;BME280;52496;51.082;5.066;2023-04-09T05:54:36;102311.22;;;5.40;100.00
65760;BME280;52496;51.082;5.066;2023-04-09T05:57:07;102306.53;;;5.43;100.00
65760;BME280;52496;51.082;5.066;2023-04-09T05:59:38;102314.75;;;5.51;100.00
65760;BME280;52496;51.082;5.066;2023-04-09T06:02:09;102318.63;;;5.59;100.00
65760;BME280;52496;51.082;5.066;2023-04-09T06:04:39;102320.81;;;5.65;100.00
65760;BME280;52496;51.082;5.066;2023-04-09T06:07:10;102314.94;;;5.72;100.00
65760;BME280;52496;51.082;5.066;2023-04-09T06:09:41;102307.34;;;5.79;100.00
65760;BME280;52496;51.082;5.066;2023-04-09T06:12:13;102323.31;;;5.90;100.00
65760;BME280;52496;51.082;5.066;2023-04-09T06:14:47;102321.69;;;6.01;100.00
65760;BME280;52496;51.082;5.066;2023-04-09T06:17:18;102321.81;;;6.10;100.00
65760;BME280;52496;51.082;5.066;2023-04-09T06:19:49;102323.63;;;6.21;100.00
65760;BME280;52496;51.082;5.066;2023-04-09T06:22:19;102328.94;;;6.32;100.00
65760;BME280;52496;51.082;5.066;2023-04-09T06:24:56;102319.31;;;6.42;100.00
65760;BME280;52496;51.082;5.066;2023-04-09T06:27:29;102328.97;;;6.55;100.00
65760;BME280;52496;51.082;5.066;2023-04-09T06:30:00;102324.59;;;6.65;100.00
65760;BME280;52496;51.082;5.066;2023-04-09T06:32:31;102338.72;;;6.77;100.00
65760;BME280;52496;51.082;5.066;2023-04-09T06:35:01;102343.88;;;6.89;100.00
65760;BME280;52496;51.082;5.066;2023-04-09T06:37:32;102340.25;;;7.02;100.00
65760;BME280;52496;51.082;5.066;2023-04-09T06:40:02;102348.91;;;7.15;100.00
65760;BME280;52496;51.082;5.066;2023-04-09T06:42:33;102349.63;;;7.28;100.00
65760;BME280;52496;51.082;5.066;2023-04-09T06:45:04;102344.25;;;7.40;100.00
65760;BME280;52496;51.082;5.066;2023-04-09T06:47:37;102352.66;;;7.56;100.00
65760;BME280;52496;51.082;5.066;2023-04-09T06:50:08;102350.63;;;7.69;100.00
65760;BME280;52496;51.082;5.066;2023-04-09T06:52:39;102355.66;;;7.84;100.00
65760;BME280;52496;51.082;5.066;2023-04-09T06:55:10;102344.81;;;7.96;100.00
65760;BME280;52496;51.082;5.066;2023-04-09T06:57:40;102348.81;;;8.12;100.00
65760;BME280;52496;51.082;5.066;2023-04-09T07:00:11;102353.94;;;8.24;100.00
65760;BME280;52496;51.082;5.066;2023-04-09T07:02:42;102357.03;;;8.41;100.00
65760;BME280;52496;51.082;5.066;2023-04-09T07:05:13;102356.69;;;8.55;100.00
65760;BME280;52496;51.082;5.066;2023-04-09T07:07:44;102350.94;;;8.69;100.00
65760;BME280;52496;51.082;5.066;2023-04-09T07:10:15;102351.41;;;8.84;100.00
65760;BME280;52496;51.082;5.066;2023-04-09T07:12:45;102350.47;;;8.95;100.00
65760;BME280;52496;51.082;5.066;2023-04-09T07:15:16;102354.56;;;9.09;100.00
65760;BME280;52496;51.082;5.066;2023-04-09T07:17:47;102353.63;;;9.19;100.00
65760;BME280;52496;51.082;5.066;2023-04-09T07:20:17;102355.19;;;9.32;100.00
65760;BME280;52496;51.082;5.066;2023-04-09T07:22:48;102349.41;;;9.46;100.00
65760;BME280;52496;51.082;5.066;2023-04-09T07:25:19;102353.50;;;9.60;100.00
65760;BME280;52496;51.082;5.066;2023-04-09T07:27:50;102358.25;;;9.76;100.00
65760;BME280;52496;51.082;5.066;2023-04-09T07:30:21;102351.50;;;9.91;100.00
65760;BME280;52496;51.082;5.066;2023-04-09T07:32:52;102349.09;;;10.07;100.00
65760;BME280;52496;51.082;5.066;2023-04-09T07:35:23;102356.50;;;10.23;100.00
65760;BME280;52496;51.082;5.066;2023-04-09T07:37:54;102358.16;;;10.34;100.00
65760;BME280;52496;51.082;5.066;2023-04-09T07:40:25;102357.28;;;10.43;100.00
65760;BME280;52496;51.082;5.066;2023-04-09T07:42:55;102359.09;;;10.52;100.00
65760;BME280;52496;51.082;5.066;2023-04-09T07:45:27;102359.63;;;10.66;100.00
65760;BME280;52496;51.082;5.066;2023-04-09T07:47:57;102358.25;;;10.79;100.00
65760;BME280;52496;51.082;5.066;2023-04-09T07:50:28;102359.31;;;10.96;100.00
65760;BME280;52496;51.082;5.066;2023-04-09T07:52:59;102355.84;;;11.14;100.00
65760;BME280;52496;51.082;5.066;2023-04-09T07:55:29;102358.28;;;11.25;100.00
65760;BME280;52496;51.082;5.066;2023-04-09T07:58:00;102361.75;;;11.35;100.00
65760;BME280;52496;51.082;5.066;2023-04-09T08:00:30;102365.31;;;11.44;100.00
65760;BME280;52496;51.082;5.066;2023-04-09T08:03:01;102362.94;;;11.59;100.00
65760;BME280;52496;51.082;5.066;2023-04-09T08:05:33;102361.88;;;11.69;100.00
65760;BME280;52496;51.082;5.066;2023-04-09T08:08:04;102364.00;;;11.84;100.00
65760;BME280;52496;51.082;5.066;2023-04-09T08:10:35;102350.56;;;12.02;100.00
65760;BME280;52496;51.082;5.066;2023-04-09T08:13:05;102359.91;;;12.15;100.00
65760;BME280;52496;51.082;5.066;2023-04-09T08:15:36;102361.84;;;12.31;100.00
65760;BME280;52496;51.082;5.066;2023-04-09T08:18:07;102359.03;;;12.41;100.00
65760;BME280;52496;51.082;5.066;2023-04-09T08:20:37;102347.19;;;12.52;100.00
65760;BME280;52496;51.082;5.066;2023-04-09T08:23:14;102351.66;;;12.69;100.00
65760;BME280;52496;51.082;5.066;2023-04-09T08:25:45;102352.38;;;12.88;100.00
65760;BME280;52496;51.082;5.066;2023-04-09T08:28:15;102354.78;;;13.07;100.00
65760;BME280;52496;51.082;5.066;2023-04-09T08:30:46;102351.81;;;13.26;100.00
65760;BME280;52496;51.082;5.066;2023-04-09T08:33:17;102345.31;;;13.37;100.00
65760;BME280;52496;51.082;5.066;2023-04-09T08:35:48;102349.84;;;13.53;99.47
65760;BME280;52496;51.082;5.066;2023-04-09T08:38:18;102350.69;;;13.62;97.48
65760;BME280;52496;51.082;5.066;2023-04-09T08:40:49;102355.22;;;13.77;97.99
65760;BME280;52496;51.082;5.066;2023-04-09T08:43:21;102362.97;;;13.97;97.55
65760;BME280;52496;51.082;5.066;2023-04-09T08:45:54;102358.22;;;14.15;96.51
65760;BME280;52496;51.082;5.066;2023-04-09T08:48:27;102360.19;;;14.30;94.54
65760;BME280;52496;51.082;5.066;2023-04-09T08:50:58;102365.41;;;14.39;92.16
65760;BME280;52496;51.082;5.066;2023-04-09T08:53:28;102356.47;;;14.39;89.87
65760;BME280;52496;51.082;5.066;2023-04-09T08:55:59;102353.59;;;14.49;91.92
65760;BME280;52496;51.082;5.066;2023-04-09T08:58:29;102356.75;;;14.68;91.73
65760;BME280;52496;51.082;5.066;2023-04-09T09:01:00;102358.72;;;14.83;87.76
65760;BME280;52496;51.082;5.066;2023-04-09T09:03:31;102352.28;;;14.92;91.05
65760;BME280;52496;51.082;5.066;2023-04-09T09:06:01;102348.47;;;15.09;88.90
65760;BME280;52496;51.082;5.066;2023-04-09T09:08:32;102345.31;;;15.29;86.75
65760;BME280;52496;51.082;5.066;2023-04-09T09:11:02;102352.28;;;15.46;82.09
65760;BME280;52496;51.082;5.066;2023-04-09T09:13:33;102344.94;;;15.55;82.48
65760;BME280;52496;51.082;5.066;2023-04-09T09:16:13;102348.13;;;15.58;82.55
65760;BME280;52496;51.082;5.066;2023-04-09T09:18:45;102340.13;;;15.73;83.22
65760;BME280;52496;51.082;5.066;2023-04-09T09:21:16;102336.81;;;15.86;81.91
65760;BME280;52496;51.082;5.066;2023-04-09T09:23:48;102338.03;;;15.98;81.08
65760;BME280;52496;51.082;5.066;2023-04-09T09:26:22;102333.13;;;16.17;78.38
65760;BME280;52496;51.082;5.066;2023-04-09T09:28:54;102330.78;;;16.28;78.56
65760;BME280;52496;51.082;5.066;2023-04-09T09:31:28;102322.03;;;16.41;78.09
65760;BME280;52496;51.082;5.066;2023-04-09T09:34:07;102333.28;;;16.60;74.68
65760;BME280;52496;51.082;5.066;2023-04-09T09:36:38;102325.09;;;16.68;75.96
65760;BME280;52496;51.082;5.066;2023-04-09T09:39:09;102323.69;;;16.72;72.38
65760;BME280;52496;51.082;5.066;2023-04-09T09:41:41;102321.34;;;16.69;72.70
65760;BME280;52496;51.082;5.066;2023-04-09T09:44:29;102321.47;;;16.76;70.74
65760;BME280;52496;51.082;5.066;2023-04-09T09:47:02;102324.00;;;16.77;69.79
65760;BME280;52496;51.082;5.066;2023-04-09T09:49:34;102311.44;;;16.91;70.86
65760;BME280;52496;51.082;5.066;2023-04-09T09:52:09;102314.94;;;17.06;72.58
65760;BME280;52496;51.082;5.066;2023-04-09T09:54:41;102327.00;;;17.25;69.36
65760;BME280;52496;51.082;5.066;2023-04-09T09:57:12;102322.19;;;17.42;68.19
65760;BME280;52496;51.082;5.066;2023-04-09T09:59:50;102325.00;;;17.55;68.60
65760;BME280;52496;51.082;5.066;2023-04-09T10:02:23;102310.25;;;17.58;65.28
65760;BME280;52496;51.082;5.066;2023-04-09T10:05:01;102317.19;;;17.67;68.06
65760;BME280;52496;51.082;5.066;2023-04-09T10:07:33;102312.19;;;17.92;64.45
65760;BME280;52496;51.082;5.066;2023-04-09T10:10:04;102306.06;;;18.05;62.97
65760;BME280;52496;51.082;5.066;2023-04-09T10:12:37;102298.59;;;18.14;63.60
65760;BME280;52496;51.082;5.066;2023-04-09T10:15:08;102302.00;;;18.29;62.78
65760;BME280;52496;51.082;5.066;2023-04-09T10:17:39;102287.69;;;18.35;63.48
65760;BME280;52496;51.082;5.066;2023-04-09T10:20:21;102294.38;;;18.39;63.37
65760;BME280;52496;51.082;5.066;2023-04-09T10:22:55;102293.25;;;18.20;60.08
65760;BME280;52496;51.082;5.066;2023-04-09T10:25:26;102283.88;;;17.88;61.17
65760;BME280;52496;51.082;5.066;2023-04-09T10:28:01;102283.19;;;17.58;63.34
65760;BME280;52496;51.082;5.066;2023-04-09T10:30:35;102283.31;;;17.71;63.31
65760;BME280;52496;51.082;5.066;2023-04-09T10:33:20;102276.28;;;18.05;63.91
65760;BME280;52496;51.082;5.066;2023-04-09T10:36:17;102291.69;;;18.46;62.05
65760;BME280;52496;51.082;5.066;2023-04-09T10:38:48;102275.25;;;18.47;60.63
65760;BME280;52496;51.082;5.066;2023-04-09T10:41:29;102276.38;;;18.66;59.08
65760;BME280;52496;51.082;5.066;2023-04-09T10:44:05;102278.84;;;18.61;59.16
65760;BME280;52496;51.082;5.066;2023-04-09T10:46:38;102272.56;;;18.54;59.28
65760;BME280;52496;51.082;5.066;2023-04-09T10:49:25;102263.81;;;18.65;60.94
65760;BME280;52496;51.082;5.066;2023-04-09T10:52:09;102262.88;;;18.86;60.15
65760;BME280;52496;51.082;5.066;2023-04-09T10:54:41;102264.41;;;19.09;59.79
65760;BME280;52496;51.082;5.066;2023-04-09T10:57:16;102265.44;;;19.41;56.78
65760;BME280;52496;51.082;5.066;2023-04-09T10:59:54;102267.38;;;19.67;58.65
65760;BME280;52496;51.082;5.066;2023-04-09T11:08:07;102258.09;;;20.08;55.24
65760;BME280;52496;51.082;5.066;2023-04-09T11:10:40;102260.16;;;20.19;54.48
65760;BME280;52496;51.082;5.066;2023-04-09T11:13:14;102258.63;;;20.36;54.79
65760;BME280;52496;51.082;5.066;2023-04-09T11:15:45;102262.78;;;20.46;53.52
65760;BME280;52496;51.082;5.066;2023-04-09T11:18:26;102257.63;;;20.24;52.75
65760;BME280;52496;51.082;5.066;2023-04-09T11:20:59;102242.38;;;20.16;53.01
65760;BME280;52496;51.082;5.066;2023-04-09T11:23:31;102250.34;;;20.11;52.00
65760;BME280;52496;51.082;5.066;2023-04-09T11:26:02;102248.56;;;19.72;53.86
65760;BME280;52496;51.082;5.066;2023-04-09T11:28:33;102244.78;;;19.53;53.54
65760;BME280;52496;51.082;5.066;2023-04-09T11:31:04;102243.78;;;19.67;52.68
65760;BME280;52496;51.082;5.066;2023-04-09T11:33:36;102238.41;;;20.19;51.73
65760;BME280;52496;51.082;5.066;2023-04-09T11:36:06;102233.84;;;20.65;52.19
65760;BME280;52496;51.082;5.066;2023-04-09T11:38:37;102242.59;;;20.73;49.52
65760;BME280;52496;51.082;5.066;2023-04-09T11:41:08;102240.63;;;20.42;50.82
65760;BME280;52496;51.082;5.066;2023-04-09T11:43:42;102233.06;;;20.57;52.61
65760;BME280;52496;51.082;5.066;2023-04-09T11:46:12;102233.06;;;20.89;51.07
65760;BME280;52496;51.082;5.066;2023-04-09T11:48:43;102241.66;;;20.86;48.71
65760;BME280;52496;51.082;5.066;2023-04-09T11:51:14;102243.94;;;20.57;48.81
65760;BME280;52496;51.082;5.066;2023-04-09T11:53:47;102244.94;;;20.63;48.56
65760;BME280;52496;51.082;5.066;2023-04-09T11:56:19;102239.00;;;20.79;48.65
65760;BME280;52496;51.082;5.066;2023-04-09T11:58:50;102232.88;;;21.16;48.45
65760;BME280;52496;51.082;5.066;2023-04-09T12:01:20;102231.00;;;21.41;46.07
65760;BME280;52496;51.082;5.066;2023-04-09T12:03:54;102235.88;;;21.58;46.01
65760;BME280;52496;51.082;5.066;2023-04-09T12:06:25;102236.91;;;21.38;46.60
65760;BME280;52496;51.082;5.066;2023-04-09T12:08:57;102237.56;;;21.02;47.65
65760;BME280;52496;51.082;5.066;2023-04-09T12:11:30;102237.34;;;20.72;47.14
65760;BME280;52496;51.082;5.066;2023-04-09T12:14:02;102226.59;;;20.52;49.03
65760;BME280;52496;51.082;5.066;2023-04-09T12:16:34;102230.41;;;20.37;47.95
65760;BME280;52496;51.082;5.066;2023-04-09T12:19:06;102233.00;;;20.12;48.42
65760;BME280;52496;51.082;5.066;2023-04-09T12:21:55;102222.44;;;19.84;48.40
65760;BME280;52496;51.082;5.066;2023-04-09T12:24:27;102214.22;;;20.04;48.98
65760;BME280;52496;51.082;5.066;2023-04-09T12:26:58;102220.53;;;19.98;49.05
65760;BME280;52496;51.082;5.066;2023-04-09T12:29:28;102214.94;;;19.80;48.07
65760;BME280;52496;51.082;5.066;2023-04-09T12:31:59;102222.59;;;19.96;48.48
65760;BME280;52496;51.082;5.066;2023-04-09T12:34:30;102221.22;;;20.32;48.18
65760;BME280;52496;51.082;5.066;2023-04-09T12:37:00;102212.00;;;20.78;46.64
65760;BME280;52496;51.082;5.066;2023-04-09T12:39:31;102196.31;;;21.37;47.34
65760;BME280;52496;51.082;5.066;2023-04-09T12:42:02;102206.19;;;21.93;45.88
65760;BME280;52496;51.082;5.066;2023-04-09T12:44:33;102208.41;;;22.21;43.07
65760;BME280;52496;51.082;5.066;2023-04-09T12:47:03;102205.47;;;22.53;43.92
65760;BME280;52496;51.082;5.066;2023-04-09T12:49:34;102209.81;;;22.72;41.45
65760;BME280;52496;51.082;5.066;2023-04-09T12:52:05;102212.31;;;22.85;41.83
65760;BME280;52496;51.082;5.066;2023-04-09T12:54:36;102207.31;;;23.01;41.69
65760;BME280;52496;51.082;5.066;2023-04-09T12:57:06;102204.28;;;22.90;42.59
65760;BME280;52496;51.082;5.066;2023-04-09T12:59:37;102215.50;;;22.82;41.87
65760;BME280;52496;51.082;5.066;2023-04-09T13:02:07;102212.38;;;22.67;40.84
65760;BME280;52496;51.082;5.066;2023-04-09T13:04:38;102216.69;;;22.44;39.72
65760;BME280;52496;51.082;5.066;2023-04-09T13:07:08;102215.91;;;22.56;41.32
65760;BME280;52496;51.082;5.066;2023-04-09T13:09:39;102206.41;;;22.47;41.12
65760;BME280;52496;51.082;5.066;2023-04-09T13:12:13;102209.81;;;22.05;39.85
65760;BME280;52496;51.082;5.066;2023-04-09T13:14:45;102204.72;;;21.53;41.01
65760;BME280;52496;51.082;5.066;2023-04-09T13:17:15;102199.72;;;21.25;41.19
65760;BME280;52496;51.082;5.066;2023-04-09T13:19:46;102197.59;;;21.02;42.15
65760;BME280;52496;51.082;5.066;2023-04-09T13:22:17;102196.75;;;20.77;41.04
65760;BME280;52496;51.082;5.066;2023-04-09T13:24:48;102190.66;;;20.43;42.32
65760;BME280;52496;51.082;5.066;2023-04-09T13:27:18;102194.09;;;20.25;42.31